Time;durP1;ratioP1;P1;durP2;ratioP2;P2;SDS_P1;SDS_P2;PMS_P1;PMS_P2;Temp;Humidity;BMP_temperature;BMP_pressure;BME280_temperature;BME280_humidity;BME280_pressure;Samples;Min_cycle;Max_cycle;Signal;HPM_P1;HPM_P2
2021/04/09 00:02:04;;;;;;;42.20;20.27;;;;;;;1.83;65.81;101474.83;1768042;77;21009;-78
2021/04/09 00:04:32;;;;;;;43.25;22.65;;;;;;;1.81;65.94;101480.02;1804530;74;21332;-68
2021/04/09 00:07:01;;;;;;;44.95;24.92;;;;;;;1.78;66.19;101481.76;1791547;75;21471;-77
2021/04/09 00:09:30;;;;;;;42.35;24.90;;;;;;;1.73;66.24;101484.39;1767546;77;21081;-73
2021/04/09 00:11:59;;;;;;;44.03;26.45;;;;;;;1.72;66.43;101490.89;1773302;77;20974;-71
2021/04/09 00:14:27;;;;;;;42.23;25.30;;;;;;;1.68;66.49;101493.92;1779049;75;21388;-77
2021/04/09 00:16:56;;;;;;;46.40;27.35;;;;;;;1.64;66.61;101490.50;1754160;77;20969;-72
2021/04/09 00:19:26;;;;;;;48.73;27.27;;;;;;;1.61;66.75;101491.84;1739374;77;21437;-74
2021/04/09 00:21:54;;;;;;;53.05;28.77;;;;;;;1.56;66.79;101494.05;1808940;74;20978;-71
2021/04/09 00:24:22;;;;;;;50.73;27.93;;;;;;;1.52;66.82;101498.82;1822321;74;21506;-76
2021/04/09 00:26:58;;;;;;;38.00;23.90;;;;;;;1.47;67.02;101504.44;1786827;77;21003;31
2021/04/09 00:29:26;;;;;;;40.03;22.10;;;;;;;1.41;67.25;101499.75;1797241;76;21571;-76
2021/04/09 00:31:55;;;;;;;35.55;22.37;;;;;;;1.33;67.60;101505.41;1787690;76;21208;-71
2021/04/09 00:34:23;;;;;;;43.80;21.87;;;;;;;1.26;68.07;101502.45;1833616;76;20891;-75
2021/04/09 00:36:51;;;;;;;43.33;25.55;;;;;;;1.22;68.46;101499.05;1786135;76;21007;-77
2021/04/09 00:39:21;;;;;;;49.42;29.57;;;;;;;1.21;68.30;101511.97;1816342;75;20919;-72
2021/04/09 00:41:49;;;;;;;40.15;23.10;;;;;;;1.15;68.22;101510.27;1831329;73;21059;-76
2021/04/09 00:44:22;;;;;;;42.38;24.90;;;;;;;1.09;68.28;101508.16;1788834;75;22078;31
2021/04/09 00:46:57;;;;;;;48.85;25.92;;;;;;;1.06;68.36;101508.20;1806591;74;20941;-77
2021/04/09 00:49:25;;;;;;;38.65;22.55;;;;;;;1.06;68.28;101505.17;1827650;73;20951;-69
2021/04/09 00:51:53;;;;;;;39.98;22.82;;;;;;;1.00;68.17;101500.04;1749438;76;20950;-75
2021/04/09 00:54:22;;;;;;;47.80;23.10;;;;;;;0.96;68.43;101495.34;1745499;77;21130;-76
2021/04/09 00:56:50;;;;;;;41.48;23.12;;;;;;;0.89;68.52;101492.38;1773615;76;21192;-71
2021/04/09 00:59:19;;;;;;;42.27;22.70;;;;;;;0.83;68.69;101484.22;1751404;77;21377;-70
2021/04/09 01:01:51;;;;;;;39.40;22.05;;;;;;;0.77;69.01;101486.83;1748796;77;21074;31
2021/04/09 01:04:25;;;;;;;42.40;23.25;;;;;;;0.73;69.18;101483.84;1768337;77;21040;-75
2021/04/09 01:06:54;;;;;;;42.27;24.40;;;;;;;0.71;69.32;101484.31;1765430;77;21045;-76
2021/04/09 01:09:22;;;;;;;38.08;24.77;;;;;;;0.64;69.55;101478.73;1762448;76;21342;-75
2021/04/09 01:11:56;;;;;;;46.48;23.80;;;;;;;0.63;69.72;101487.35;1767703;77;20987;-76
2021/04/09 01:14:24;;;;;;;;;;;;;;;0.39;69.90;101459.94;1775266;75;21066;-76
2021/04/09 01:17:08;;;;;;;41.77;20.60;;;;;;;0.58;69.91;101488.67;1792222;76;20387;31
2021/04/09 01:20:04;;;;;;;34.05;21.10;;;;;;;0.52;69.97;101488.69;1740637;78;20914;-70
2021/04/09 01:22:45;;;;;;;42.98;21.23;;;;;;;0.55;70.01;101501.56;1750104;78;21475;-71
2021/04/09 01:25:44;;;;;;;42.27;21.33;;;;;;;0.54;69.98;101513.21;1784302;75;20997;31
2021/04/09 01:28:39;;;;;;;35.17;21.85;;;;;;;0.53;70.12;101516.64;1691909;78;21040;-71
2021/04/09 01:31:38;;;;;;;35.90;21.00;;;;;;;0.49;70.13;101515.81;1648157;80;21026;-76
2021/04/09 01:34:44;;;;;;;39.85;19.98;;;;;;;0.47;70.30;101517.53;1847723;73;22676;-71
2021/04/09 01:37:42;;;;;;;38.23;20.70;;;;;;;0.41;70.51;101514.97;1700718;79;21509;-71
2021/04/09 01:40:21;;;;;;;31.33;18.73;;;;;;;0.42;70.61;101515.38;1710879;80;22765;-75
2021/04/09 01:42:52;;;;;;;35.25;18.25;;;;;;;0.44;70.82;101520.55;1712266;81;21325;-73
2021/04/09 01:45:21;;;;;;;34.83;20.90;;;;;;;0.46;70.78;101523.98;1741968;80;21462;-78
2021/04/09 01:47:51;;;;;;;36.25;19.73;;;;;;;0.48;70.79;101530.84;1748409;78;21226;-71
2021/04/09 01:50:19;;;;;;;37.80;20.75;;;;;;;0.50;70.75;101536.02;1760201;77;21588;-72
2021/04/09 01:52:48;;;;;;;37.85;20.27;;;;;;;0.51;70.62;101538.60;1735411;79;21471;-74
2021/04/09 01:55:17;;;;;;;38.23;22.17;;;;;;;0.51;70.59;101539.89;1792143;77;21351;-67
2021/04/09 01:57:45;;;;;;;37.33;20.72;;;;;;;0.50;70.64;101547.19;1783509;78;20993;-70
2021/04/09 02:00:21;;;;;;;112.95;47.53;;;;;;;0.48;70.68;101548.06;1767837;78;20973;-74
2021/04/09 02:02:49;;;;;;;36.03;19.82;;;;;;;0.47;70.80;101548.91;1797176;78;21144;-72
2021/04/09 02:05:24;;;;;;;43.78;20.37;;;;;;;0.41;70.77;101555.81;1766972;78;21387;-75
2021/04/09 02:07:59;;;;;;;38.70;20.82;;;;;;;0.40;70.76;101559.27;1778552;77;21051;-75
2021/04/09 02:10:43;;;;;;;34.73;19.05;;;;;;;0.35;70.83;101566.14;1774879;78;20991;-71
2021/04/09 02:13:12;;;;;;;35.23;19.43;;;;;;;0.35;71.02;101575.17;1826784;74;21320;-75
2021/04/09 02:15:40;;;;;;;38.25;20.88;;;;;;;0.30;71.20;101569.17;1841981;75;21360;-76
2021/04/09 02:18:14;;;;;;;38.42;23.18;;;;;;;0.33;71.15;101572.17;1834106;75;22263;-76
2021/04/09 02:20:43;;;;;;;45.48;18.48;;;;;;;0.31;71.16;101571.31;1822855;76;20961;-71
2021/04/09 02:23:11;;;;;;;25.92;15.83;;;;;;;0.33;71.04;101577.34;1815539;75;21029;-70
2021/04/09 02:25:44;;;;;;;26.80;16.32;;;;;;;0.31;71.02;101587.68;1824754;75;20933;31
2021/04/09 02:28:13;;;;;;;21.90;15.18;;;;;;;0.29;70.92;101593.67;1833038;74;21042;-77
2021/04/09 02:30:41;;;;;;;30.20;16.85;;;;;;;0.27;70.97;101593.70;1856641;75;22275;-76
2021/04/09 02:33:09;;;;;;;27.48;16.10;;;;;;;0.22;71.21;101599.72;1845127;76;21152;-75
2021/04/09 02:35:38;;;;;;;24.23;14.75;;;;;;;0.19;71.45;101603.16;1890148;74;21426;-72
2021/04/09 02:38:06;;;;;;;25.37;16.15;;;;;;;0.15;71.69;101604.88;1856564;74;21623;-75
2021/04/09 02:40:36;;;;;;;35.98;16.37;;;;;;;0.16;71.71;101610.91;1803797;77;20982;-76
2021/04/09 02:43:04;;;;;;;32.58;15.80;;;;;;;0.12;71.71;101614.35;1828086;76;21653;-71
2021/04/09 02:45:33;;;;;;;26.70;14.47;;;;;;;0.09;71.86;101615.63;1782915;77;21005;-70
2021/04/09 02:48:02;;;;;;;25.45;14.60;;;;;;;0.08;72.01;101612.19;1772887;76;21255;-69
2021/04/09 02:50:41;;;;;;;25.75;14.30;;;;;;;0.12;71.95;101616.49;1756794;77;21506;-70
2021/04/09 02:53:16;;;;;;;22.67;14.28;;;;;;;0.11;71.96;101614.79;1822232;76;21129;-71
2021/04/09 02:55:45;;;;;;;25.15;14.70;;;;;;;0.10;72.04;101620.79;1796591;75;21447;-76
2021/04/09 02:58:15;;;;;;;21.55;14.65;;;;;;;0.11;72.14;101615.20;1786968;77;21013;-72
2021/04/09 03:00:52;;;;;;;20.10;12.07;;;;;;;0.12;72.34;101622.09;1779230;75;21572;-67
2021/04/09 03:03:32;;;;;;;24.00;14.28;;;;;;;0.14;72.36;101623.80;1749384;78;20952;-72
2021/04/09 03:06:04;;;;;;;24.12;14.47;;;;;;;0.12;72.61;101621.65;1746297;76;20921;31
2021/04/09 03:08:32;;;;;;;20.65;12.90;;;;;;;0.17;72.62;101626.80;1822175;76;22264;-75
2021/04/09 03:11:02;;;;;;;28.90;15.23;;;;;;;0.18;72.63;101625.95;1789515;76;21036;-74
2021/04/09 03:13:31;;;;;;;25.15;14.85;;;;;;;0.20;72.70;101628.08;1724450;78;20986;-71
2021/04/09 03:16:00;;;;;;;28.65;15.18;;;;;;;0.24;72.77;101632.81;1784373;75;20947;-71
2021/04/09 03:18:30;;;;;;;27.32;16.23;;;;;;;0.26;72.77;101629.80;1821278;75;21013;-74
2021/04/09 03:21:00;;;;;;;33.78;14.85;;;;;;;0.27;72.70;101627.23;1762094;77;21383;-71
2021/04/09 03:23:28;;;;;;;29.02;14.95;;;;;;;0.28;72.54;101628.09;1771120;77;21046;-72
2021/04/09 03:25:56;;;;;;;24.18;14.93;;;;;;;0.30;72.67;101629.80;1804178;76;21061;-72
2021/04/09 03:28:25;;;;;;;30.62;16.37;;;;;;;0.34;72.54;101634.54;1798333;77;20982;-71
2021/04/09 03:30:53;;;;;;;24.82;15.35;;;;;;;0.37;72.45;101631.94;1797682;76;21017;-73
2021/04/09 03:33:22;;;;;;;29.77;15.50;;;;;;;0.41;72.42;101638.38;1777725;76;21331;-75
2021/04/09 03:35:51;;;;;;;35.52;14.50;;;;;;;0.45;72.23;101637.11;1784171;75;20967;-72
2021/04/09 03:38:20;;;;;;;29.90;16.67;;;;;;;0.46;72.06;101642.24;1783094;77;20985;-74
2021/04/09 03:40:50;;;;;;;32.65;18.82;;;;;;;0.48;71.96;101646.97;1825261;76;20984;-76
2021/04/09 03:43:19;;;;;;;40.12;19.45;;;;;;;0.49;72.03;101652.58;1798642;75;20954;-72
2021/04/09 03:45:48;;;;;;;35.23;19.12;;;;;;;0.54;72.07;101650.84;1775116;77;21364;-77
2021/04/09 03:48:18;;;;;;;38.80;19.70;;;;;;;0.62;71.94;101657.26;1814597;76;21450;-76
2021/04/09 03:50:47;;;;;;;36.40;21.52;;;;;;;0.72;71.60;101658.97;1804785;76;20929;-74
2021/04/09 03:53:15;;;;;;;34.98;19.48;;;;;;;0.79;71.43;101655.50;1793603;75;20891;-72
2021/04/09 03:55:44;;;;;;;41.35;21.35;;;;;;;0.90;71.34;101661.08;1790474;77;20981;-79
2021/04/09 03:58:11;;;;;;;36.33;20.95;;;;;;;0.99;71.32;101661.89;1805379;75;21374;-71
2021/04/09 04:00:39;;;;;;;46.37;24.25;;;;;;;1.11;71.01;101666.17;1818623;76;20969;-73
2021/04/09 04:03:07;;;;;;;58.65;34.08;;;;;;;1.25;70.83;101671.28;1789147;75;21038;-75
2021/04/09 04:05:35;;;;;;;52.80;34.43;;;;;;;1.39;70.65;101675.93;1805921;75;21021;-75
2021/04/09 04:08:03;;;;;;;49.73;27.82;;;;;;;1.53;70.24;101673.70;1839924;75;21433;-76
2021/04/09 04:10:33;;;;;;;66.82;35.60;;;;;;;1.61;69.94;101679.27;1810674;75;20986;-76
2021/04/09 04:13:02;;;;;;;48.25;26.60;;;;;;;1.71;69.53;101681.78;1795173;77;21376;-74
2021/04/09 04:15:32;;;;;;;42.85;23.52;;;;;;;1.81;69.14;101693.80;1828031;76;21146;-72
2021/04/09 04:18:01;;;;;;;78.57;28.32;;;;;;;1.93;68.92;101698.03;1817717;76;21016;-72
2021/04/09 04:20:29;;;;;;;61.55;25.72;;;;;;;2.09;68.85;101702.24;1809829;76;20925;-75
2021/04/09 04:22:57;;;;;;;57.10;24.50;;;;;;;2.26;68.76;101700.80;1760389;77;22207;-70
2021/04/09 04:25:29;;;;;;;41.10;21.95;;;;;;;2.43;68.51;101704.11;1831797;75;21045;31
2021/04/09 04:27:57;;;;;;;42.38;22.87;;;;;;;2.69;68.36;101706.46;1806886;76;20950;-71
2021/04/09 04:30:26;;;;;;;34.88;21.07;;;;;;;2.93;67.81;101712.25;1816062;75;22106;-71
2021/04/09 04:32:54;;;;;;;44.13;20.37;;;;;;;3.14;67.42;101720.69;1793537;76;20934;-75
2021/04/09 04:35:23;;;;;;;42.38;18.65;;;;;;;3.39;67.30;101723.83;1817045;76;21204;-77
2021/04/09 04:37:51;;;;;;;24.98;14.25;;;;;;;3.77;66.77;101722.02;1849684;76;20942;-79
2021/04/09 04:40:20;;;;;;;25.12;12.53;;;;;;;4.21;65.65;101727.45;1793236;75;21360;-77
2021/04/09 04:42:49;;;;;;;28.90;14.58;;;;;;;4.71;64.65;101721.41;1820153;77;20896;-71
2021/04/09 04:45:17;;;;;;;34.83;15.85;;;;;;;5.29;63.89;101730.27;1813063;75;21373;-75
2021/04/09 04:47:50;;;;;;;23.85;12.93;;;;;;;5.87;62.59;101732.95;1789536;76;22210;31
2021/04/09 04:50:19;;;;;;;37.80;13.00;;;;;;;6.44;60.85;101732.47;1824556;76;21386;-76
2021/04/09 04:52:47;;;;;;;26.62;13.45;;;;;;;6.92;58.88;101740.38;1812270;75;21490;-77
2021/04/09 04:55:16;;;;;;;25.35;11.80;;;;;;;7.36;57.55;101739.61;1796926;76;21342;-76
2021/04/09 04:57:48;;;;;;;15.15;9.33;;;;;;;7.82;56.37;101746.52;1776071;77;20914;-76
2021/04/09 05:00:21;;;;;;;9.55;8.55;;;;;;;8.19;55.76;101749.31;1820841;77;20962;-77
2021/04/09 05:02:50;;;;;;;12.05;9.45;;;;;;;8.50;55.00;101743.52;1753756;77;20920;-76
2021/04/09 05:05:19;;;;;;;13.98;8.75;;;;;;;8.91;54.28;101748.23;1750112;79;20942;-72
2021/04/09 05:07:47;;;;;;;15.03;8.25;;;;;;;9.37;53.59;101759.69;1765975;81;21421;-72
2021/04/09 05:10:17;;;;;;;11.38;8.10;;;;;;;9.85;52.05;101756.57;1788748;76;21016;-73
2021/04/09 05:12:45;;;;;;;16.77;7.60;;;;;;;10.35;50.80;101756.38;1836274;76;22105;-74
2021/04/09 05:15:15;;;;;;;10.38;6.65;;;;;;;10.75;49.01;101754.25;1782875;78;20998;-73
2021/04/09 05:17:45;;;;;;;9.55;7.75;;;;;;;11.03;47.78;101753.52;1848355;77;21084;-77
2021/04/09 05:20:15;;;;;;;12.58;6.95;;;;;;;11.29;47.38;101758.47;1812960;76;22607;-73
2021/04/09 05:22:45;;;;;;;8.60;6.22;;;;;;;11.60;46.95;101755.77;1822574;78;21329;-74
2021/04/09 05:25:15;;;;;;;9.28;6.42;;;;;;;11.90;46.27;101760.11;1781415;80;21314;-74
2021/04/09 05:27:43;;;;;;;10.25;6.83;;;;;;;12.26;45.79;101756.63;1822516;78;20940;-74
2021/04/09 05:30:14;;;;;;;8.68;6.50;;;;;;;12.62;44.54;101752.63;1781444;80;21372;-75
2021/04/09 05:32:52;;;;;;;9.00;6.90;;;;;;;12.95;43.64;101753.63;1769870;77;20995;-74
2021/04/09 05:35:28;;;;;;;11.22;7.20;;;;;;;13.22;42.94;101753.96;1778272;77;20934;-76
2021/04/09 05:37:56;;;;;;;6.95;6.15;;;;;;;13.51;42.17;101759.49;1853026;77;21369;-74
2021/04/09 05:40:24;;;;;;;13.95;6.67;;;;;;;13.76;41.38;101761.19;1847694;77;20887;-76
2021/04/09 05:42:59;;;;;;;14.53;6.42;;;;;;;13.95;41.06;101760.16;1822382;77;20945;-77
2021/04/09 05:45:28;;;;;;;13.08;7.17;;;;;;;14.14;41.37;101763.92;1743483;77;20959;-74
2021/04/09 05:48:01;;;;;;;9.58;6.00;;;;;;;14.34;40.78;101762.78;1795506;76;20937;-80
2021/04/09 05:50:27;;;;;;;10.32;6.90;;;;;;;14.59;40.43;101755.66;1822143;76;21130;-75
2021/04/09 05:52:55;;;;;;;10.13;7.17;;;;;;;14.80;39.17;101761.45;1823758;76;20938;-78
2021/04/09 05:55:23;;;;;;;10.25;7.28;;;;;;;14.94;38.29;101764.13;1808067;76;20951;-75
2021/04/09 05:57:53;;;;;;;11.97;7.10;;;;;;;15.00;37.93;101757.14;1791044;78;21021;-74
2021/04/09 06:00:21;;;;;;;10.35;7.78;;;;;;;15.22;37.26;101765.09;1785674;78;21069;-74
2021/04/09 06:02:50;;;;;;;11.53;8.45;;;;;;;15.27;36.06;101765.20;1823246;78;21236;-75
2021/04/09 06:05:18;;;;;;;12.15;8.00;;;;;;;15.29;35.87;101762.44;1832601;76;20964;-76
2021/04/09 06:07:46;;;;;;;10.55;7.97;;;;;;;15.29;35.69;101763.28;1809486;75;20923;-76
2021/04/09 06:10:15;;;;;;;10.55;7.92;;;;;;;15.30;35.88;101770.77;1792933;75;20927;-79
2021/04/09 06:12:43;;;;;;;9.88;7.42;;;;;;;15.27;36.05;101763.88;1825701;75;21004;-79
2021/04/09 06:15:12;;;;;;;9.43;6.90;;;;;;;15.20;35.97;101769.13;1794356;76;22087;-76
2021/04/09 06:17:41;;;;;;;10.93;8.10;;;;;;;15.31;36.62;101765.36;1787365;80;21295;-77
2021/04/09 06:20:11;;;;;;;8.43;7.10;;;;;;;15.58;36.71;101776.97;1802497;79;20958;-76
2021/04/09 06:22:41;;;;;;;9.53;7.58;;;;;;;15.73;36.18;101776.04;1803306;76;20986;-75
2021/04/09 06:25:12;;;;;;;8.23;7.30;;;;;;;15.92;35.69;101779.22;1804676;79;20947;-75
2021/04/09 06:27:40;;;;;;;9.43;7.28;;;;;;;16.27;35.40;101772.09;1856450;75;21325;-79
2021/04/09 06:30:10;;;;;;;8.30;7.28;;;;;;;16.67;35.36;101769.45;1787714;77;20939;-76
2021/04/09 06:32:38;;;;;;;9.78;6.95;;;;;;;17.04;34.18;101770.12;1780184;77;21090;-75
2021/04/09 06:35:09;;;;;;;13.25;8.25;;;;;;;17.16;33.16;101769.25;1817611;78;20927;-74
2021/04/09 06:37:42;;;;;;;7.50;6.78;;;;;;;17.20;32.55;101764.11;1817352;79;21332;-73
2021/04/09 06:40:14;;;;;;;8.70;6.37;;;;;;;17.28;33.19;101764.92;1820509;78;21461;-75
2021/04/09 06:42:55;;;;;;;8.88;7.33;;;;;;;17.49;33.41;101770.50;1833598;75;21077;-77
2021/04/09 06:45:25;;;;;;;9.15;7.25;;;;;;;17.68;33.06;101765.59;1723189;83;20997;-73
2021/04/09 06:47:55;;;;;;;9.00;7.30;;;;;;;17.93;32.07;101768.66;1761656;80;20934;-75
2021/04/09 06:50:24;;;;;;;8.45;6.42;;;;;;;18.10;30.83;101770.09;1734668;77;21443;-75
2021/04/09 06:52:59;;;;;;;8.53;6.65;;;;;;;18.20;32.19;101776.41;1804502;75;21222;-80
2021/04/09 06:55:59;;;;;;;7.60;6.90;;;;;;;18.35;31.57;101777.09;1785220;76;21045;31
2021/04/09 06:58:28;;;;;;;8.20;6.62;;;;;;;18.41;31.67;101773.98;1817582;77;21006;-77
2021/04/09 07:00:59;;;;;;;7.60;6.90;;;;;;;18.56;31.38;101769.80;1774707;78;20959;-73
2021/04/09 07:03:29;;;;;;;7.97;7.17;;;;;;;18.76;30.59;101764.30;1815935;78;20883;-75
2021/04/09 07:05:58;;;;;;;8.53;7.62;;;;;;;18.81;30.96;101760.86;1819434;78;21358;-75
2021/04/09 07:08:29;;;;;;;9.05;8.05;;;;;;;18.97;30.26;101760.03;1780842;79;20962;-74
2021/04/09 07:10:59;;;;;;;9.18;6.50;;;;;;;19.08;29.97;101764.52;1802378;75;21170;-75
2021/04/09 07:13:29;;;;;;;8.78;6.85;;;;;;;19.20;29.95;101760.05;1815152;77;20981;-74
2021/04/09 07:16:09;;;;;;;9.95;7.03;;;;;;;19.44;30.35;101766.58;1815319;79;21434;-75
2021/04/09 07:18:48;;;;;;;8.70;6.45;;;;;;;19.65;29.44;101762.67;1804063;76;21442;-79
2021/04/09 07:21:29;;;;;;;9.35;5.92;;;;;;;19.88;29.16;101765.70;1806180;75;21041;-76
2021/04/09 07:24:20;;;;;;;8.40;6.40;;;;;;;20.03;29.21;101761.41;1740624;82;20919;-78
2021/04/09 07:26:51;;;;;;;7.78;6.97;;;;;;;20.21;28.89;101758.59;1759600;77;20954;-81
2021/04/09 07:29:38;;;;;;;14.07;7.05;;;;;;;20.34;28.49;101761.55;1833418;77;21646;-76
2021/04/09 07:32:20;;;;;;;16.57;7.80;;;;;;;20.58;27.91;101753.36;1812659;76;21579;-75
2021/04/09 07:35:13;;;;;;;7.95;7.15;;;;;;;20.73;27.76;101756.06;1808518;76;20973;-79
2021/04/09 07:37:57;;;;;;;8.33;6.75;;;;;;;20.90;27.33;101752.80;1761078;75;20938;-79
2021/04/09 07:40:32;;;;;;;7.67;6.92;;;;;;;21.05;27.25;101755.11;1777070;76;21205;-77
2021/04/09 07:43:01;;;;;;;9.40;6.15;;;;;;;21.03;27.13;101759.27;1818288;75;21081;-78
2021/04/09 07:45:30;;;;;;;7.65;6.28;;;;;;;21.08;25.96;101760.20;1780883;77;21373;-77
2021/04/09 07:50:51;;;;;;;6.72;6.03;;;;;;;20.62;26.13;101766.29;1742050;80;21086;-78
2021/04/09 07:53:32;;;;;;;7.55;6.83;;;;;;;20.65;26.35;101763.39;1713174;83;20895;-75
2021/04/09 07:56:07;;;;;;;7.78;5.92;;;;;;;20.77;26.39;101772.65;1778057;76;21246;-77
2021/04/09 07:58:36;;;;;;;8.13;6.55;;;;;;;20.86;25.07;101771.86;1755438;77;22152;-78
2021/04/09 08:01:28;;;;;;;6.42;5.83;;;;;;;21.09;26.17;101764.55;1762350;78;21445;-75
2021/04/09 08:04:06;;;;;;;7.40;5.80;;;;;;;21.19;24.48;101762.77;1812900;77;20993;-78
2021/04/09 08:06:37;;;;;;;7.40;5.60;;;;;;;21.13;25.13;101765.13;1772117;78;20931;-76
2021/04/09 08:09:07;;;;;;;8.00;6.42;;;;;;;21.21;24.90;101762.63;1729822;77;20994;-75
2021/04/09 08:11:39;;;;;;;7.08;5.85;;;;;;;21.17;25.52;101759.39;1803311;77;21021;-75
2021/04/09 08:14:13;;;;;;;7.12;5.70;;;;;;;21.28;24.73;101764.64;1797772;77;23036;-79
2021/04/09 08:16:46;;;;;;;6.55;5.50;;;;;;;21.32;24.53;101758.53;1776209;77;20974;-69
2021/04/09 08:19:25;;;;;;;6.37;5.20;;;;;;;21.43;24.41;101757.62;1774755;77;21001;-81
2021/04/09 08:21:56;;;;;;;5.10;4.60;;;;;;;21.41;23.91;101752.91;1838766;77;21044;-77
2021/04/09 08:27:14;;;;;;;4.90;4.40;;;;;;;21.26;22.25;101757.75;1757956;78;20925;31
2021/04/09 08:29:44;;;;;;;5.40;4.53;;;;;;;20.89;21.64;101750.25;1747538;78;21058;-74
2021/04/09 08:32:19;;;;;;;4.85;4.10;;;;;;;20.90;22.20;101761.30;1773981;76;20943;31
2021/04/09 08:34:49;;;;;;;8.58;4.60;;;;;;;21.11;21.72;101763.92;1731584;82;20938;-81
2021/04/09 08:37:23;;;;;;;4.70;4.22;;;;;;;21.18;22.02;101754.41;1792186;76;21368;-77
2021/04/09 08:39:52;;;;;;;5.85;4.03;;;;;;;21.33;21.52;101758.90;1797594;76;20970;-79
2021/04/09 08:42:22;;;;;;;5.78;4.67;;;;;;;21.48;21.04;101764.25;1797380;76;20981;-79
2021/04/09 08:44:52;;;;;;;4.20;3.77;;;;;;;21.18;20.28;101754.90;1819345;78;20934;-83
2021/04/09 08:47:24;;;;;;;5.10;4.10;;;;;;;20.83;22.01;101758.77;1803119;79;21026;-80
2021/04/09 08:49:54;;;;;;;4.83;3.85;;;;;;;20.83;21.00;101762.77;1802748;76;21350;-80
2021/04/09 08:52:26;;;;;;;8.08;4.12;;;;;;;20.74;21.10;101762.23;1829842;75;21102;-78
2021/04/09 08:54:55;;;;;;;4.10;3.47;;;;;;;20.80;21.82;101755.89;1820767;78;21523;-76
2021/04/09 08:57:37;;;;;;;3.58;3.27;;;;;;;21.07;22.04;101755.82;1793977;77;21148;-80
2021/04/09 09:00:19;;;;;;;4.00;3.60;;;;;;;21.06;21.59;101746.98;1816060;76;21001;-79
2021/04/09 09:02:54;;;;;;;4.25;3.85;;;;;;;21.01;21.79;101751.88;1806952;78;21341;-77
2021/04/09 09:05:36;;;;;;;3.95;3.58;;;;;;;20.44;21.37;101752.66;1736270;81;20971;-77
2021/04/09 09:08:02;;;;;;;3.92;3.60;;;;;;;19.82;21.94;101754.21;1794396;76;20953;-76
2021/04/09 09:10:38;;;;;;;4.50;4.10;;;;;;;19.36;22.48;101757.86;1789324;77;21452;-77
2021/04/09 09:13:21;;;;;;;6.47;3.75;;;;;;;18.94;22.88;101755.42;1828543;76;20940;-74
2021/04/09 09:15:55;;;;;;;6.10;4.33;;;;;;;18.97;24.33;101760.52;1830634;76;20903;-76
2021/04/09 09:18:31;;;;;;;4.40;3.37;;;;;;;19.32;23.19;101763.09;1825902;77;20954;-75
2021/04/09 09:21:20;;;;;;;4.20;3.55;;;;;;;19.66;22.14;101754.58;1814786;77;20901;-77
2021/04/09 09:24:03;;;;;;;4.80;3.58;;;;;;;19.87;22.35;101767.15;1807694;76;20990;-77
2021/04/09 09:26:44;;;;;;;4.87;4.33;;;;;;;19.81;22.21;101759.19;1814733;74;22791;-76
2021/04/09 09:29:22;;;;;;;4.92;3.20;;;;;;;19.85;21.97;101763.77;1758269;77;21055;-78
2021/04/09 09:32:09;;;;;;;5.50;4.35;;;;;;;19.92;22.72;101767.64;1739702;77;21196;-78
2021/04/09 09:34:45;;;;;;;5.12;4.62;;;;;;;19.97;23.38;101768.59;1750172;81;20904;-77
2021/04/09 09:37:20;;;;;;;5.45;4.10;;;;;;;19.88;22.20;101774.18;1754611;81;21007;-76
2021/04/09 09:40:02;;;;;;;6.20;3.85;;;;;;;19.87;22.18;101772.47;1718353;83;20967;-77
2021/04/09 09:42:35;;;;;;;4.92;4.12;;;;;;;19.81;21.95;101771.17;1789095;77;21363;-75
2021/04/09 09:45:09;;;;;;;4.40;4.00;;;;;;;19.60;20.81;101770.19;1799014;79;22388;-80
2021/04/09 09:47:44;;;;;;;5.72;4.60;;;;;;;19.16;20.99;101763.42;1765122;77;21072;-80
2021/04/09 09:50:38;;;;;;;7.00;4.42;;;;;;;18.72;21.61;101771.67;1753677;80;21926;-75
2021/04/09 09:53:10;;;;;;;5.42;4.30;;;;;;;18.42;22.17;101766.36;1736059;78;20935;-77
2021/04/09 09:55:49;;;;;;;6.28;4.17;;;;;;;18.67;22.33;101766.33;1810533;75;21004;-77
2021/04/09 09:58:19;;;;;;;6.87;4.65;;;;;;;19.06;22.08;101770.44;1862982;76;21411;-77
2021/04/09 10:01:14;;;;;;;6.37;4.08;;;;;;;19.33;21.85;101762.10;1797023;77;21012;-76
2021/04/09 10:03:43;;;;;;;5.55;4.50;;;;;;;19.55;23.27;101762.58;1729264;81;21001;-77
2021/04/09 10:06:13;;;;;;;6.87;5.25;;;;;;;19.89;22.00;101766.54;1790668;76;20989;-76
2021/04/09 10:08:46;;;;;;;8.23;4.80;;;;;;;19.94;21.90;101763.01;1818043;77;21424;-78
2021/04/09 10:11:21;;;;;;;6.33;4.92;;;;;;;19.65;22.03;101763.55;1854548;75;21170;-77
2021/04/09 10:13:51;;;;;;;6.90;5.40;;;;;;;19.28;22.57;101774.92;1767889;80;20960;-77
2021/04/09 10:16:25;;;;;;;9.23;5.03;;;;;;;18.58;22.61;101770.03;1801306;79;20938;-77
2021/04/09 10:19:08;;;;;;;5.17;4.67;;;;;;;17.91;22.34;101769.25;1801116;79;20885;-75
2021/04/09 10:21:42;;;;;;;6.22;5.03;;;;;;;17.51;22.77;101765.94;1830980;75;21438;-76
2021/04/09 10:24:20;;;;;;;5.55;4.42;;;;;;;17.15;23.67;101767.57;1800047;76;21438;-70
2021/04/09 10:26:58;;;;;;;6.70;4.83;;;;;;;16.76;23.64;101764.00;1812096;76;20925;-79
2021/04/09 10:29:36;;;;;;;5.80;3.83;;;;;;;16.40;23.92;101766.84;1862413;77;20981;-75
2021/04/09 10:32:28;;;;;;;5.08;4.28;;;;;;;16.30;25.29;101762.64;1889008;76;20989;-73
2021/04/09 10:35:01;;;;;;;7.10;3.60;;;;;;;16.53;25.65;101753.65;1808501;76;21000;-75
2021/04/09 10:37:28;;;;;;;4.95;3.55;;;;;;;17.01;24.93;101747.33;1754717;77;21151;-77
2021/04/09 10:39:58;;;;;;;4.45;3.83;;;;;;;17.24;24.73;101756.32;1743025;77;20996;-76
2021/04/09 10:42:29;;;;;;;5.10;3.62;;;;;;;17.27;22.92;101759.23;1798778;76;20932;31
2021/04/09 10:45:00;;;;;;;4.75;3.83;;;;;;;17.06;23.97;101747.01;1842275;78;20913;-75
2021/04/09 10:47:30;;;;;;;4.67;3.42;;;;;;;16.78;22.88;101753.70;1818055;77;20954;-75
2021/04/09 10:49:59;;;;;;;8.95;4.25;;;;;;;16.47;23.94;101746.11;1861883;75;21260;-73
2021/04/09 10:52:31;;;;;;;4.28;3.87;;;;;;;16.07;24.17;101758.84;1851638;75;22916;-77
2021/04/09 10:55:03;;;;;;;4.67;4.28;;;;;;;15.55;24.48;101756.86;1771506;79;21336;-76
2021/04/09 10:57:35;;;;;;;9.63;4.15;;;;;;;14.97;25.23;101750.73;1794130;80;20937;-75
2021/04/09 11:00:08;;;;;;;6.28;3.58;;;;;;;14.55;24.42;101749.70;1813744;75;21072;-74
2021/04/09 11:02:48;;;;;;;5.08;3.60;;;;;;;14.30;24.81;101749.77;1841936;77;21354;-72
2021/04/09 11:05:19;;;;;;;4.17;3.40;;;;;;;14.33;25.05;101746.10;1842171;77;21022;-75
2021/04/09 11:07:51;;;;;;;4.08;3.30;;;;;;;14.60;25.57;101744.14;1733346;78;21037;-76
2021/04/09 11:10:34;;;;;;;3.33;3.02;;;;;;;14.99;24.03;101736.95;1742495;77;21343;-73
2021/04/09 11:13:02;;;;;;;5.58;3.47;;;;;;;15.49;24.60;101736.93;1755461;77;20890;-74
2021/04/09 11:15:40;;;;;;;6.12;3.30;;;;;;;16.03;23.93;101740.17;1786572;76;21191;-74
2021/04/09 11:18:11;;;;;;;3.27;2.70;;;;;;;16.48;24.39;101738.07;1803893;77;21088;-73
2021/04/09 11:20:55;;;;;;;3.30;2.85;;;;;;;17.01;23.45;101736.73;1786599;80;20936;-74
2021/04/09 11:23:36;;;;;;;5.67;3.58;;;;;;;17.35;23.66;101735.69;1785626;79;20943;-72
2021/04/09 11:29:00;;;;;;;5.87;3.00;;;;;;;17.22;22.75;101735.69;1801160;76;22625;-75
2021/04/09 11:31:28;;;;;;;4.78;3.87;;;;;;;16.77;23.02;101743.20;1701368;79;21082;-74
2021/04/09 11:34:11;;;;;;;4.92;3.55;;;;;;;16.29;23.91;101746.38;1607454;88;21429;-73
2021/04/09 11:36:50;;;;;;;4.87;3.10;;;;;;;15.82;23.26;101743.70;1664582;86;21043;-74
2021/04/09 11:39:19;;;;;;;3.52;3.08;;;;;;;15.33;24.94;101742.81;1696726;80;20980;-75
2021/04/09 11:41:56;;;;;;;3.40;3.10;;;;;;;14.95;24.50;101737.23;1742918;78;23977;-74
2021/04/09 11:44:32;;;;;;;7.95;3.77;;;;;;;14.56;27.49;101747.90;1726004;80;21433;-74
2021/04/09 11:47:25;;;;;;;3.98;2.65;;;;;;;14.56;27.49;101747.90;1721121;79;21449;-75
2021/04/09 11:50:26;;;;;;;5.33;3.12;;;;;;;14.82;27.08;101739.77;1669076;80;21338;-72
2021/04/09 11:53:04;;;;;;;3.12;2.80;;;;;;;14.82;27.08;101739.77;1687142;80;21496;-73
2021/04/09 11:55:35;;;;;;;4.00;2.80;;;;;;;15.01;27.97;101739.04;1705884;80;21424;-75
2021/04/09 11:58:16;;;;;;;4.70;3.62;;;;;;;15.13;27.44;101732.15;1649608;82;21062;-77